Time;durP1;ratioP1;P1;durP2;ratioP2;P2;SDS_P1;SDS_P2;PMS_P1;PMS_P2;Temp;Humidity;BMP_temperature;BMP_pressure;BME280_temperature;BME280_humidity;BME280_pressure;Samples;Min_cycle;Max_cycle;Signal;HPM_P1;HPM_P2
2021/11/05 00:02:29;;;;;;;;;;;;;;;;;;5090302;28;19924;-68
2021/11/05 00:04:56;;;;;;;;;;;;;;;;;;5089920;28;19974;-67
2021/11/05 00:07:23;;;;;;;;;;;;;;;;;;5089784;28;19924;-67
2021/11/05 00:09:50;;;;;;;;;;;;;;;;;;5087686;28;20300;-67
2021/11/05 00:12:17;;;;;;;;;;;;;;;;;;5089514;28;20011;-67
2021/11/05 00:14:43;;;;;;;;;;;;;;;;;;5090201;28;20038;-67
2021/11/05 00:17:10;;;;;;;;;;;;;;;;;;5091087;28;19927;-67
2021/11/05 00:19:38;;;;;;;;;;;;;;;;;;5086299;28;19924;-67
2021/11/05 00:22:05;;;;;;;;;;;;;;;;;;5088551;28;19925;-68
2021/11/05 00:24:32;;;;;;;;;;;;;;;;;;5091160;28;19924;-67
2021/11/05 00:26:59;;;;;;;;;;;;;;;;;;5089335;28;19924;-67
2021/11/05 00:29:26;;;;;;;;;;;;;;;;;;5094088;28;19951;-68
2021/11/05 00:31:53;;;;;;;;;;;;;;;;;;5090591;28;21027;-66
2021/11/05 00:34:20;;;;;;;;;;;;;;;;;;5090133;28;19936;-68
2021/11/05 00:36:47;;;;;;;;;;;;;;;;;;5090804;28;20015;-67
2021/11/05 00:39:14;;;;;;;;;;;;;;;;;;5089794;28;20384;-67
2021/11/05 00:41:41;;;;;;;;;;;;;;;;;;5086541;28;19924;-67
2021/11/05 00:44:08;;;;;;;;;;;;;;;;;;5093659;28;20011;-67
2021/11/05 00:46:35;;;;;;;;;;;;;;;;;;5092237;28;20018;-68
2021/11/05 00:49:02;;;;;;;;;;;;;;;;;;5090299;28;20214;-68
2021/11/05 00:51:29;;;;;;;;;;;;;;;;;;5087156;28;19931;-68
2021/11/05 00:53:56;;;;;;;;;;;;;;;;;;5094587;28;19924;-67
2021/11/05 00:56:23;;;;;;;;;;;;;;;;;;5088981;28;19928;-67
2021/11/05 00:58:50;;;;;;;;;;;;;;;;;;5092247;28;19935;-67
2021/11/05 01:01:17;;;;;;;;;;;;;;;;;;5090653;28;19924;-67
2021/11/05 01:03:43;;;;;;;;;;;;;;;;;;5088991;28;19932;-67
2021/11/05 01:06:10;;;;;;;;;;;;;;;;;;5088362;28;19931;-66
2021/11/05 01:08:37;;;;;;;;;;;;;;;;;;5089004;28;19930;-68
2021/11/05 01:11:04;;;;;;;;;;;;;;;;;;5089462;28;19928;-66
2021/11/05 01:13:31;;;;;;;;;;;;;;;;;;5086979;28;19924;-68
2021/11/05 01:15:58;;;;;;;;;;;;;;;;;;5084540;28;20380;-65
2021/11/05 01:18:26;;;;;;;;;;;;;;;;;;5088918;28;19930;-68
2021/11/05 01:20:53;;;;;;;;;;;;;;;;;;5087413;28;19939;-67
2021/11/05 01:23:21;;;;;;;;;;;;;;;;;;5086932;28;20277;-67
2021/11/05 01:25:48;;;;;;;;;;;;;;;;;;5089827;28;19931;-68
2021/11/05 01:28:15;;;;;;;;;;;;;;;;;;5093537;28;19924;-67
2021/11/05 01:30:42;;;;;;;;;;;;;;;;;;5090223;28;19986;-67
2021/11/05 01:33:09;;;;;;;;;;;;;;;;;;5088075;28;19924;-67
2021/11/05 01:35:36;;;;;;;;;;;;;;;;;;5090563;28;19924;-67
2021/11/05 01:38:03;;;;;;;;;;;;;;;;;;5090640;28;19946;-68
2021/11/05 01:40:30;;;;;;;;;;;;;;;;;;5090011;28;19928;-67
2021/11/05 01:43:00;;;;;;;;;;;;;;;;;;5093162;28;19930;-67
2021/11/05 01:45:27;;;;;;;;;;;;;;;;;;5090137;28;19970;-66
2021/11/05 01:47:54;;;;;;;;;;;;;;;;;;5090995;28;19924;-67
2021/11/05 01:50:21;;;;;;;;;;;;;;;;;;5093473;28;19924;-68
2021/11/05 01:52:48;;;;;;;;;;;;;;;;;;5092769;28;19931;-66
2021/11/05 01:55:15;;;;;;;;;;;;;;;;;;5092563;28;19924;-67
2021/11/05 01:57:42;;;;;;;;;;;;;;;;;;5094812;28;20417;-68
2021/11/05 02:00:09;;;;;;;;;;;;;;;;;;5094318;28;20436;-67
2021/11/05 02:02:36;;;;;;;;;;;;;;;;;;5090318;28;19932;-67
2021/11/05 02:05:03;;;;;;;;;;;;;;;;;;5092450;28;19934;-67
2021/11/05 02:07:30;;;;;;;;;;;;;;;;;;5090574;28;19931;-68
2021/11/05 02:09:57;;;;;;;;;;;;;;;;;;5092053;28;19982;-67
2021/11/05 02:12:24;;;;;;;;;;;;;;;;;;5095223;28;19933;-67
2021/11/05 02:14:51;;;;;;;;;;;;;;;;;;5098887;28;20307;-67
2021/11/05 02:17:18;;;;;;;;;;;;;;;;;;5096716;28;19934;-67
2021/11/05 02:19:45;;;;;;;;;;;;;;;;;;5090954;28;20184;-68
2021/11/05 02:22:12;;;;;;;;;;;;;;;;;;5095588;28;20345;-67
2021/11/05 02:24:39;;;;;;;;;;;;;;;;;;5095252;28;19924;-67
2021/11/05 02:27:06;;;;;;;;;;;;;;;;;;5093598;28;19931;-67
2021/11/05 02:29:33;;;;;;;;;;;;;;;;;;5093731;28;19935;-67
2021/11/05 02:32:00;;;;;;;;;;;;;;;;;;5092088;28;19924;-67
2021/11/05 02:34:28;;;;;;;;;;;;;;;;;;5091817;28;20380;-67
2021/11/05 02:36:55;;;;;;;;;;;;;;;;;;5095860;28;19930;-67
2021/11/05 02:39:23;;;;;;;;;;;;;;;;;;5089895;28;19928;-66
2021/11/05 02:41:50;;;;;;;;;;;;;;;;;;5090717;28;20292;-66
2021/11/05 02:44:16;;;;;;;;;;;;;;;;;;5094027;28;19924;-67
2021/11/05 02:46:43;;;;;;;;;;;;;;;;;;5090605;28;19932;-68
2021/11/05 02:49:13;;;;;;;;;;;;;;;;;;5092642;28;19971;-67
2021/11/05 02:51:40;;;;;;;;;;;;;;;;;;5093706;28;19931;-65
2021/11/05 02:54:07;;;;;;;;;;;;;;;;;;5091364;28;19942;-65
2021/11/05 02:56:34;;;;;;;;;;;;;;;;;;5088669;28;20371;-65
2021/11/05 02:59:01;;;;;;;;;;;;;;;;;;5092652;28;20021;-67
2021/11/05 03:01:28;;;;;;;;;;;;;;;;;;5092581;28;20446;-67
2021/11/05 03:03:55;;;;;;;;;;;;;;;;;;5089720;28;20287;-66
2021/11/05 03:06:22;;;;;;;;;;;;;;;;;;5091491;28;19939;-67
2021/11/05 03:08:49;;;;;;;;;;;;;;;;;;5090614;28;19931;-66
2021/11/05 03:11:16;;;;;;;;;;;;;;;;;;5092902;28;19924;-66
2021/11/05 03:13:43;;;;;;;;;;;;;;;;;;5095376;28;19924;-66
2021/11/05 03:16:10;;;;;;;;;;;;;;;;;;5088795;28;19928;-66
2021/11/05 03:18:40;;;;;;;;;;;;;;;;;;5093106;28;19932;-66
2021/11/05 03:21:07;;;;;;;;;;;;;;;;;;5092998;28;19935;-66
2021/11/05 03:23:34;;;;;;;;;;;;;;;;;;5092690;28;20138;-67
2021/11/05 03:26:01;;;;;;;;;;;;;;;;;;5094980;28;19931;-66
2021/11/05 03:28:28;;;;;;;;;;;;;;;;;;5089838;28;20451;-66
2021/11/05 03:30:55;;;;;;;;;;;;;;;;;;5097693;28;20264;-67
2021/11/05 03:33:22;;;;;;;;;;;;;;;;;;5090523;28;19924;-66
2021/11/05 03:35:49;;;;;;;;;;;;;;;;;;5093808;28;20062;-66
2021/11/05 03:38:16;;;;;;;;;;;;;;;;;;5090785;28;20556;-66
2021/11/05 03:40:43;;;;;;;;;;;;;;;;;;5087914;28;19929;-67
2021/11/05 03:43:10;;;;;;;;;;;;;;;;;;5084963;28;19956;-65
2021/11/05 03:45:37;;;;;;;;;;;;;;;;;;5088722;28;19924;-68
2021/11/05 03:48:04;;;;;;;;;;;;;;;;;;5088438;28;19929;-66
2021/11/05 03:50:31;;;;;;;;;;;;;;;;;;5088874;28;20295;-67
2021/11/05 03:52:58;;;;;;;;;;;;;;;;;;5084993;28;20373;-65
2021/11/05 03:55:25;;;;;;;;;;;;;;;;;;5092360;28;19925;-66
2021/11/05 03:57:52;;;;;;;;;;;;;;;;;;5089119;28;19924;-65
2021/11/05 04:00:20;;;;;;;;;;;;;;;;;;5087745;28;19935;-65
2021/11/05 04:02:47;;;;;;;;;;;;;;;;;;5092531;28;19936;-68
2021/11/05 04:05:14;;;;;;;;;;;;;;;;;;5092755;28;20005;-66
2021/11/05 04:07:41;;;;;;;;;;;;;;;;;;5085561;28;19924;-66
2021/11/05 04:10:08;;;;;;;;;;;;;;;;;;5089068;28;19931;-66
2021/11/05 04:12:35;;;;;;;;;;;;;;;;;;5093829;28;19924;-67
2021/11/05 04:15:02;;;;;;;;;;;;;;;;;;5091630;28;19924;-65
2021/11/05 04:17:29;;;;;;;;;;;;;;;;;;5091312;28;19931;-64
2021/11/05 04:19:56;;;;;;;;;;;;;;;;;;5092438;28;19936;-66
2021/11/05 04:22:23;;;;;;;;;;;;;;;;;;5088910;28;19931;-67
2021/11/05 04:24:50;;;;;;;;;;;;;;;;;;5091211;28;19924;-67
2021/11/05 04:27:17;;;;;;;;;;;;;;;;;;5093566;28;19924;-67
2021/11/05 04:29:44;;;;;;;;;;;;;;;;;;5087846;28;19928;-67
2021/11/05 04:32:11;;;;;;;;;;;;;;;;;;5091157;28;19970;-66
2021/11/05 04:34:38;;;;;;;;;;;;;;;;;;5085603;28;19932;-67
2021/11/05 04:37:06;;;;;;;;;;;;;;;;;;5091915;28;20371;-65
2021/11/05 04:39:33;;;;;;;;;;;;;;;;;;5090554;28;19924;-66
2021/11/05 04:42:01;;;;;;;;;;;;;;;;;;5092516;28;19931;-68
2021/11/05 04:44:28;;;;;;;;;;;;;;;;;;5091525;28;20450;-65
2021/11/05 04:46:55;;;;;;;;;;;;;;;;;;5094791;28;20323;-65
2021/11/05 04:49:23;;;;;;;;;;;;;;;;;;5093359;28;19931;-66
2021/11/05 04:51:50;;;;;;;;;;;;;;;;;;5090653;28;19925;-68
2021/11/05 04:54:17;;;;;;;;;;;;;;;;;;5088192;28;19924;-65
2021/11/05 04:56:44;;;;;;;;;;;;;;;;;;5093486;28;19958;-66
2021/11/05 04:59:11;;;;;;;;;;;;;;;;;;5087220;28;20368;-66
2021/11/05 05:01:38;;;;;;;;;;;;;;;;;;5086215;28;19928;-66
2021/11/05 05:04:05;;;;;;;;;;;;;;;;;;5092942;28;19924;-65
2021/11/05 05:06:32;;;;;;;;;;;;;;;;;;5091828;28;19924;-66
2021/11/05 05:08:59;;;;;;;;;;;;;;;;;;5092803;28;19928;-67
2021/11/05 05:11:26;;;;;;;;;;;;;;;;;;5088634;28;19924;-66
2021/11/05 05:13:53;;;;;;;;;;;;;;;;;;5090295;28;19924;-66
2021/11/05 05:16:20;;;;;;;;;;;;;;;;;;5090881;28;19978;-66
2021/11/05 05:18:47;;;;;;;;;;;;;;;;;;5095475;28;19935;-65
2021/11/05 05:21:14;;;;;;;;;;;;;;;;;;5094853;28;20312;-66
2021/11/05 05:23:41;;;;;;;;;;;;;;;;;;5095441;28;20483;-66
2021/11/05 05:26:08;;;;;;;;;;;;;;;;;;5096292;28;20399;-65
2021/11/05 05:28:35;;;;;;;;;;;;;;;;;;5095531;28;19931;-70
2021/11/05 05:31:03;;;;;;;;;;;;;;;;;;5090378;28;19931;-66
2021/11/05 05:33:30;;;;;;;;;;;;;;;;;;5090921;28;19927;-67
2021/11/05 05:35:57;;;;;;;;;;;;;;;;;;5093817;28;19931;-65
2021/11/05 05:38:24;;;;;;;;;;;;;;;;;;5092192;28;20288;-65
2021/11/05 05:40:51;;;;;;;;;;;;;;;;;;5089976;28;19931;-68
2021/11/05 05:43:18;;;;;;;;;;;;;;;;;;5093306;28;19928;-67
2021/11/05 05:45:45;;;;;;;;;;;;;;;;;;5090643;28;19925;-66
2021/11/05 05:48:12;;;;;;;;;;;;;;;;;;5090761;28;19947;-66
2021/11/05 05:50:39;;;;;;;;;;;;;;;;;;5088612;28;19932;-67
2021/11/05 05:53:06;;;;;;;;;;;;;;;;;;5089856;28;20033;-65
2021/11/05 05:55:33;;;;;;;;;;;;;;;;;;5092475;28;20307;-66
2021/11/05 05:58:00;;;;;;;;;;;;;;;;;;5096485;28;19924;-67
2021/11/05 06:00:28;;;;;;;;;;;;;;;;;;5091373;28;19924;-67
2021/11/05 06:02:56;;;;;;;;;;;;;;;;;;5096144;28;19963;-67
2021/11/05 06:05:22;;;;;;;;;;;;;;;;;;5092355;28;19924;-67
2021/11/05 06:07:49;;;;;;;;;;;;;;;;;;5087437;28;19936;-67
2021/11/05 06:10:16;;;;;;;;;;;;;;;;;;5095113;28;19932;-66
2021/11/05 06:12:43;;;;;;;;;;;;;;;;;;5096355;28;19930;-67
2021/11/05 06:15:10;;;;;;;;;;;;;;;;;;5091638;28;19928;-68
2021/11/05 06:17:38;;;;;;;;;;;;;;;;;;5092861;28;19924;-67
2021/11/05 06:20:05;;;;;;;;;;;;;;;;;;5093055;28;19928;-69
2021/11/05 06:22:32;;;;;;;;;;;;;;;;;;5094721;28;19932;-66
2021/11/05 06:24:59;;;;;;;;;;;;;;;;;;5094771;28;20314;-67
2021/11/05 06:27:27;;;;;;;;;;;;;;;;;;5092416;28;19924;-65
2021/11/05 06:29:54;;;;;;;;;;;;;;;;;;5094202;28;19924;-65
2021/11/05 06:32:21;;;;;;;;;;;;;;;;;;5089879;28;19931;-66
2021/11/05 06:34:47;;;;;;;;;;;;;;;;;;5090848;28;19970;-66
2021/11/05 06:37:14;;;;;;;;;;;;;;;;;;5087612;28;19938;-65
2021/11/05 06:39:41;;;;;;;;;;;;;;;;;;5072172;28;20273;-65
2021/11/05 06:42:08;;;;;;;;;;;;;;;;;;5083023;28;20021;-65
2021/11/05 06:44:35;;;;;;;;;;;;;;;;;;5081484;28;19962;-64
2021/11/05 06:47:02;;;;;;;;;;;;;;;;;;5090214;28;19931;-65
2021/11/05 06:49:29;;;;;;;;;;;;;;;;;;5079489;28;20273;-66
2021/11/05 06:51:56;;;;;;;;;;;;;;;;;;5086006;28;19924;-67
2021/11/05 06:54:23;;;;;;;;;;;;;;;;;;5083275;28;19932;-66
2021/11/05 06:56:50;;;;;;;;;;;;;;;;;;5082884;28;19924;-67
2021/11/05 06:59:17;;;;;;;;;;;;;;;;;;5085519;28;19924;-66
2021/11/05 07:01:44;;;;;;;;;;;;;;;;;;5088023;28;19925;-67
2021/11/05 07:04:11;;;;;;;;;;;;;;;;;;5091166;28;19946;-66
2021/11/05 07:06:44;;;;;;;;;;;;;;;;;;5089000;28;19924;-67
2021/11/05 07:09:11;;;;;;;;;;;;;;;;;;5091595;28;19924;-67
2021/11/05 07:11:38;;;;;;;;;;;;;;;;;;5091535;28;19931;-66
2021/11/05 07:14:05;;;;;;;;;;;;;;;;;;5080340;28;19936;-66
2021/11/05 07:16:33;;;;;;;;;;;;;;;;;;5085974;28;20376;-67
2021/11/05 07:19:00;;;;;;;;;;;;;;;;;;5087747;28;20415;-66
2021/11/05 07:21:27;;;;;;;;;;;;;;;;;;5089054;28;19925;-65
2021/11/05 07:24:00;;;;;;;;;;;;;;;;;;5084466;28;19933;-67
2021/11/05 07:26:28;;;;;;;;;;;;;;;;;;5089090;28;19928;-67
2021/11/05 07:28:55;;;;;;;;;;;;;;;;;;5088162;28;20284;-65
2021/11/05 07:31:22;;;;;;;;;;;;;;;;;;5084248;28;19925;-66
2021/11/05 07:33:49;;;;;;;;;;;;;;;;;;5084149;28;19928;-66
2021/11/05 07:36:16;;;;;;;;;;;;;;;;;;5076870;28;19925;-66
2021/11/05 07:38:43;;;;;;;;;;;;;;;;;;5088733;28;19924;-67
2021/11/05 07:41:11;;;;;;;;;;;;;;;;;;5076717;28;20303;-66
2021/11/05 07:43:38;;;;;;;;;;;;;;;;;;5080124;28;20388;-66
2021/11/05 07:46:05;;;;;;;;;;;;;;;;;;5088702;28;19932;-67
2021/11/05 07:48:32;;;;;;;;;;;;;;;;;;5077559;28;19932;-65
2021/11/05 07:50:59;;;;;;;;;;;;;;;;;;5083227;28;20297;-66
2021/11/05 07:53:26;;;;;;;;;;;;;;;;;;5083547;28;19936;-67
2021/11/05 07:55:53;;;;;;;;;;;;;;;;;;5075041;28;19924;-66
2021/11/05 07:58:20;;;;;;;;;;;;;;;;;;5082023;28;20326;-67
2021/11/05 08:00:47;;;;;;;;;;;;;;;;;;5086559;28;19924;-67
2021/11/05 08:03:15;;;;;;;;;;;;;;;;;;5082223;28;20027;-66
2021/11/05 08:05:43;;;;;;;;;;;;;;;;;;5085695;28;20003;-67
2021/11/05 08:08:10;;;;;;;;;;;;;;;;;;5089257;28;19924;-67
2021/11/05 08:10:37;;;;;;;;;;;;;;;;;;5090219;28;19924;-66
2021/11/05 08:13:04;;;;;;;;;;;;;;;;;;5087542;28;20291;-67
2021/11/05 08:15:31;;;;;;;;;;;;;;;;;;5085918;28;19928;-66
2021/11/05 08:17:58;;;;;;;;;;;;;;;;;;5088039;28;19924;-67
2021/11/05 08:20:25;;;;;;;;;;;;;;;;;;5089951;28;19934;-67
2021/11/05 08:22:52;;;;;;;;;;;;;;;;;;5086032;28;20296;-67
2021/11/05 08:25:19;;;;;;;;;;;;;;;;;;5088139;28;19924;-67
2021/11/05 08:27:46;;;;;;;;;;;;;;;;;;5085788;28;19924;-67
2021/11/05 08:30:13;;;;;;;;;;;;;;;;;;5085574;28;19924;-67
2021/11/05 08:32:40;;;;;;;;;;;;;;;;;;5088923;28;19927;-67
2021/11/05 08:35:07;;;;;;;;;;;;;;;;;;5087921;28;19930;-66
2021/11/05 08:37:34;;;;;;;;;;;;;;;;;;5086817;28;19939;-67
2021/11/05 08:40:01;;;;;;;;;;;;;;;;;;5082471;28;20396;-67
2021/11/05 08:42:28;;;;;;;;;;;;;;;;;;5087543;28;20011;-67
2021/11/05 08:44:55;;;;;;;;;;;;;;;;;;5084933;28;19927;-66
2021/11/05 08:47:23;;;;;;;;;;;15.00;99.90;;;;;;5084343;28;19931;-66
2021/11/05 08:49:53;;;;;;;;;;;;;;;;;;5080385;28;19924;-67
2021/11/05 08:52:20;;;;;;;;;;;;;;;;;;5082614;28;19955;-65
2021/11/05 08:54:47;;;;;;;;;;;;;;;;;;5075154;28;19939;-67
2021/11/05 08:57:14;;;;;;;;;;;;;;;;;;5084355;28;19997;-66
2021/11/05 08:59:41;;;;;;;;;;;;;;;;;;5089155;28;19934;-67
2021/11/05 09:02:08;;;;;;;;;;;;;;;;;;5084248;28;20282;-67
2021/11/05 09:04:35;;;;;;;;;;;;;;;;;;5085999;28;19932;-68
2021/11/05 09:07:02;;;;;;;;;;;;;;;;;;5078834;28;20316;-67
2021/11/05 09:09:30;;;;;;;;;;;;;;;;;;5082364;28;19928;-67
2021/11/05 09:11:57;;;;;;;;;;;;;;;;;;5082050;28;20263;-66
2021/11/05 09:14:23;;;;;;;;;;;;;;;;;;5086018;28;20359;-67
2021/11/05 09:16:50;;;;;;;;;;;;;;;;;;5079755;28;19924;-67
2021/11/05 09:19:17;;;;;;;;;;;;;;;;;;5084745;28;19928;-67
2021/11/05 09:21:44;;;;;;;;;;;;;;;;;;5085962;28;20320;-67
2021/11/05 09:24:11;;;;;;;;;;;;;;;;;;5083269;28;19932;-68
2021/11/05 09:26:38;;;;;;;;;;;;;;;;;;5085672;28;20326;-67
2021/11/05 09:29:05;;;;;;;;;;;;;;;;;;5079319;28;19944;-67
2021/11/05 09:31:32;;;;;;;;;;;;;;;;;;5079750;28;19924;-67
2021/11/05 09:33:59;;;;;;;;;;;;;;;;;;5081960;28;19938;-67
2021/11/05 09:36:26;;;;;;;;;;;;;;;;;;5088502;28;19928;-67
2021/11/05 09:38:53;;;;;;;;;;;;;;;;;;5081892;28;20172;-67
2021/11/05 09:41:20;;;;;;;;;;;;;;;;;;5084968;28;19934;-67
2021/11/05 09:43:47;;;;;;;;;;;;;;;;;;5086644;28;20321;-68
2021/11/05 09:46:17;;;;;;;;;;;;;;;;;;5089163;28;19930;-66
2021/11/05 09:48:44;;;;;;;;;;;;;;;;;;5093275;28;20014;-67
2021/11/05 09:51:11;;;;;;;;;;;;;;;;;;5085153;28;19967;-68
2021/11/05 09:53:38;;;;;;;;;;;;;;;;;;5090822;28;20388;-67
2021/11/05 09:56:05;;;;;;;;;;;;;;;;;;5093277;28;20154;-69
2021/11/05 09:58:32;;;;;;;;;;;;;;;;;;5095893;28;19924;-68
2021/11/05 10:00:59;;;;;;;;;;;;;;;;;;5093352;28;19934;-68
2021/11/05 10:03:27;;;;;;;;;;;;;;;;;;5103436;28;19997;-68
2021/11/05 10:05:54;;;;;;;;;;;;;;;;;;5101074;28;19924;-68
2021/11/05 10:08:21;;;;;;;;;;;;;;;;;;5101735;28;20003;-68
2021/11/05 10:10:48;;;;;;;;;;;;;;;;;;5095761;28;19925;-67
2021/11/05 10:13:22;;;;;;;;;;;;;;;;;;5100584;28;20030;-66
2021/11/05 10:15:49;;;;;;;;;;;;;;;;;;5094344;28;19928;-68
2021/11/05 10:18:16;;;;;;;;;;;;;;;;;;5095171;28;19943;-67
2021/11/05 10:20:43;;;;;;;;;;;;;;;;;;5099856;28;19924;-68
2021/11/05 10:23:10;;;;;;;;;;;;;;;;;;5098959;28;19924;-67
2021/11/05 10:25:37;;;;;;;;;;;;;;;;;;5093272;28;19928;-67
2021/11/05 10:28:05;;;;;;;;;;;;;;;;;;5093520;28;19977;-67
2021/11/05 10:30:32;;;;;;;;;;;;;;;;;;5093253;28;19954;-68
2021/11/05 10:33:00;;;;;;;;;;;;;;;;;;5098536;28;20378;-68
2021/11/05 10:35:27;;;;;;;;;;;;;;;;;;5095614;28;19963;-66
2021/11/05 10:37:54;;;;;;;;;;;;;;;;;;5092932;28;19924;-68
2021/11/05 10:40:21;;;;;;;;;;;;;;;;;;5088796;28;20024;-67
2021/11/05 10:42:48;;;;;;;;;;;;;;;;;;5094894;28;19932;-68
2021/11/05 10:45:15;;;;;;;;;;;;;;;;;;5095919;28;19930;-65
2021/11/05 10:47:42;;;;;;;;;;;;;;;;;;5099369;28;20011;-64
2021/11/05 10:50:09;;;;;;;;;;;;;;;;;;5098721;28;19925;-66
2021/11/05 10:52:36;;;;;;;;;;;;;;;;;;5092840;28;20482;-64
2021/11/05 10:55:03;;;;;;;;;;;;;;;;;;5099896;28;19931;-67
2021/11/05 10:57:30;;;;;;;;;;;;;;;;;;5099177;28;19956;-67
2021/11/05 10:59:57;;;;;;;;;;;;;;;;;;5095625;28;19924;-64
2021/11/05 11:02:24;;;;;;;;;;;;;;;;;;5095233;28;19924;-69
2021/11/05 11:04:51;;;;;;;;;;;;;;;;;;5098811;28;20466;-67
2021/11/05 11:07:18;;;;;;;;;;;;;;;;;;5097021;28;19928;-66
2021/11/05 11:09:45;;;;;;;;;;;;;;;;;;5095913;28;19942;-67
2021/11/05 11:12:12;;;;;;;;;;;;;;;;;;5098786;28;19932;-67
2021/11/05 11:14:39;;;;;;;;;;;;;;;;;;5099005;28;20390;-66
2021/11/05 11:17:10;;;;;;;;;;;;;;;;;;5097227;28;20307;-66
2021/11/05 11:19:41;;;;;;;;;;;;;;;;;;5101942;28;19978;-66
2021/11/05 11:22:08;;;;;;;;;;;;;;;;;;5097321;28;20657;-65
2021/11/05 11:24:35;;;;;;;;;;;;;;;;;;5097046;28;19923;-67
2021/11/05 11:27:02;;;;;;;;;;;;;;;;;;5091990;28;19925;-65
2021/11/05 11:29:29;;;;;;;;;;;;;;;;;;5088849;28;20035;-66
2021/11/05 11:31:56;;;;;;;;;;;;;;;;;;5090384;28;19939;-67
2021/11/05 11:34:23;;;;;;;;;;;;;;;;;;5095269;28;19931;-67
2021/11/05 11:36:50;;;;;;;;;;;;;;;;;;5097883;28;19932;-69
2021/11/05 11:39:17;;;;;;;;;;;;;;;;;;5091332;28;19983;-67
2021/11/05 11:41:44;;;;;;;;;;;;;;;;;;5095991;28;19924;-68
2021/11/05 11:44:11;;;;;;;;;;;;;;;;;;5094735;28;19924;-67
2021/11/05 11:46:38;;;;;;;;;;;;;;;;;;5094661;28;20431;-68
2021/11/05 11:49:05;;;;;;;;;;;;;;;;;;5092524;28;19938;-67
2021/11/05 11:51:32;;;;;;;;;;;;;;;;;;5087618;28;19946;-68
2021/11/05 11:54:00;;;;;;;;;;;;;;;;;;5081231;28;19924;-68
2021/11/05 11:56:27;;;;;;;;;;;;;;;;;;5088975;28;19924;-68
2021/11/05 11:58:54;;;;;;;;;;;;;;;;;;5089580;28;20436;-68
2021/11/05 12:01:21;;;;;;;;;;;;;;;;;;5090790;28;19950;-66
2021/11/05 12:03:48;;;;;;;;;;;;;;;;;;5089324;28;19924;-68
2021/11/05 12:06:15;;;;;;;;;;;;;;;;;;5087961;28;19928;-69
2021/11/05 12:08:44;;;;;;;;;;;;;;;;;;5088537;28;19958;-68
2021/11/05 12:11:11;;;;;;;;;;;;;;;;;;5088009;28;20037;-69
2021/11/05 12:13:38;;;;;;;;;;;;;;;;;;5090031;28;20384;-68
2021/11/05 12:16:05;;;;;;;;;;;;;;;;;;5084715;28;19935;-68
2021/11/05 12:18:32;;;;;;;;;;;;;;;;;;5085134;28;20315;-67
2021/11/05 12:20:59;;;;;;;;;;;;;;;;;;5084867;28;20007;-68
2021/11/05 12:23:27;;;;;;;;;;;;;;;;;;5091099;28;20340;-70
2021/11/05 12:25:57;;;;;;;;;;;;;;;;;;5085189;28;19927;-68
2021/11/05 12:28:24;;;;;;;;;;;;;;;;;;5084319;28;20007;-69
2021/11/05 12:30:51;;;;;;;;;;;;;;;;;;5088071;28;19938;-68
2021/11/05 12:33:18;;;;;;;;;;;;;;;;;;5088776;28;19931;-68
2021/11/05 12:35:45;;;;;;;;;;;;;;;;;;5083623;28;19924;-68
2021/11/05 12:38:12;;;;;;;;;;;;;;;;;;5083642;28;20326;-69
2021/11/05 12:40:41;;;;;;;;;;;;;;;;;;5081332;28;19924;-69
2021/11/05 12:43:08;;;;;;;;;;;;;;;;;;5084399;28;20008;-69
2021/11/05 12:45:35;;;;;;;;;;;;;;;;;;5082929;28;20007;-68
2021/11/05 12:48:02;;;;;;;;;;;;;;;;;;5089263;28;20306;-69
2021/11/05 12:50:30;;;;;;;;;;;;;;;;;;5082775;28;19924;-68
2021/11/05 12:52:57;;;;;;;;;;;;;;;;;;5082969;28;19979;-68
2021/11/05 12:55:24;;;;;;;;;;;;;;;;;;5085549;28;20300;-68
2021/11/05 12:57:51;;;;;;;;;;;;;;;;;;5092633;28;19976;-68
2021/11/05 13:00:18;;;;;;;;;;;;;;;;;;5086610;28;19924;-68
2021/11/05 13:02:45;;;;;;;;;;;;;;;;;;5089535;28;20358;-67
2021/11/05 13:05:12;;;;;;;;;;;;;;;;;;5089416;28;19924;-69
2021/11/05 13:07:39;;;;;;;;;;;;;;;;;;5084454;28;21447;-67
2021/11/05 13:10:06;;;;;;;;;;;;;;;;;;5084774;28;19928;-69
2021/11/05 13:12:35;;;;;;;;;;;;;;;;;;5088444;28;19992;-66
2021/11/05 13:15:03;;;;;;;;;;;;;;;;;;5084807;28;19932;-68
2021/11/05 13:17:30;;;;;;;;;;;;;;;;;;5087174;28;19924;-67
2021/11/05 13:19:57;;;;;;;;;;;;;;;;;;5085019;28;19924;-68
2021/11/05 13:22:24;;;;;;;;;;;;;;;;;;5085900;28;20014;-66
2021/11/05 13:24:51;;;;;;;;;;;;;;;;;;5083639;28;20296;-66
2021/11/05 13:27:18;;;;;;;;;;;;;;;;;;5088496;28;19993;-67
2021/11/05 13:29:45;;;;;;;;;;;;;;;;;;5083784;28;19939;-68
2021/11/05 13:32:12;;;;;;;;;;;;;;;;;;5085307;28;19927;-67
2021/11/05 13:34:39;;;;;;;;;;;;;;;;;;5080837;28;19970;-68
2021/11/05 13:37:06;;;;;;;;;;;;;;;;;;5089735;28;20019;-67
2021/11/05 13:39:33;;;;;;;;;;;;;;;;;;5088414;28;19932;-67
2021/11/05 13:42:00;;;;;;;;;;;;;;;;;;5091007;28;20213;-67
2021/11/05 13:44:27;;;;;;;;;;;;;;;;;;5090073;28;19928;-67
2021/11/05 13:46:54;;;;;;;;;;;;;;;;;;5089517;28;20311;-70
2021/11/05 13:49:21;;;;;;;;;;;;;;;;;;5087043;28;19928;-69
2021/11/05 13:51:49;;;;;;;;;;;;;;;;;;5088978;28;19931;-68
2021/11/05 13:54:16;;;;;;;;;;;;;;;;;;5088405;28;19925;-69
2021/11/05 13:56:42;;;;;;;;;;;;;;;;;;5086900;28;19977;-67
2021/11/05 13:59:09;;;;;;;;;;;;;;;;;;5098218;28;19931;-68
2021/11/05 14:01:36;;;;;;;;;;;;;;;;;;5089312;28;19932;-68
2021/11/05 14:04:03;;;;;;;;;;;;;;;;;;5091808;28;20018;-69
2021/11/05 14:06:30;;;;;;;;;;;;;;;;;;5091759;28;19935;-68
2021/11/05 14:08:57;;;;;;;;;;;;;;;;;;5090748;28;19940;-68
2021/11/05 14:11:24;;;;;;;;;;;;;;;;;;5087439;28;19962;-69
2021/11/05 14:13:53;;;;;;;;;;;;;;;;;;5091090;28;20075;-66
2021/11/05 14:16:20;;;;;;;;;;;;;;;;;;5088890;28;19924;-68
2021/11/05 14:18:47;;;;;;;;;;;;;;;;;;5095491;28;19981;-69
2021/11/05 14:21:14;;;;;;;;;;;;;;;;;;5091459;28;19984;-69
2021/11/05 14:23:41;;;;;;;;;;;;;;;;;;5091748;28;19924;-68
2021/11/05 14:26:08;;;;;;;;;;;;;;;;;;5087258;28;19924;-69
2021/11/05 14:28:35;;;;;;;;;;;;;;;;;;5086107;28;19931;-68
2021/11/05 14:31:02;;;;;;;;;;;;;;;;;;5085459;28;19924;-67
2021/11/05 14:33:29;;;;;;;;;;;;;;;;;;5078459;28;19928;-66
2021/11/05 14:35:57;;;;;;;;;;;;;;;;;;5079727;28;19972;-69
2021/11/05 14:38:24;;;;;;;;;;;;;;;;;;5084117;28;20354;-68
2021/11/05 14:40:51;;;;;;;;;;;;;;;;;;5084955;28;19976;-68
2021/11/05 14:43:18;;;;;;;;;;;;;;;;;;5086889;28;20010;-68
2021/11/05 14:45:45;;;;;;;;;;;;;;;;;;5083077;28;19964;-69
2021/11/05 14:48:12;;;;;;;;;;;;;;;;;;5086305;28;19976;-68
2021/11/05 14:50:38;;;;;;;;;;;;;;;;;;5069878;28;19935;-65
2021/11/05 14:53:06;;;;;;;;;;;;;;;;;;5086321;28;19950;-69
2021/11/05 14:55:33;;;;;;;;;;;;;;;;;;5084825;28;19932;-70
2021/11/05 14:58:00;;;;;;;;;;;;;;;;;;5069310;28;20415;-67
2021/11/05 15:00:27;;;;;;;;;;;;;;;;;;5087387;28;19932;-69
2021/11/05 15:02:54;;;;;;;;;;;;;;;;;;5089402;28;20285;-68
2021/11/05 15:05:22;;;;;;;;;;;;;;;;;;5089423;28;20384;-67
2021/11/05 15:07:49;;;;;;;;;;;;;;;;;;5082228;28;19947;-69
2021/11/05 15:10:16;;;;;;;;;;;;;;;;;;5085632;28;20445;-68
2021/11/05 15:12:43;;;;;;;;;;;;;;;;;;5089312;28;19933;-67
2021/11/05 15:15:10;;;;;;;;;;;;;;;;;;5085915;28;19993;-68
2021/11/05 15:17:37;;;;;;;;;;;;;;;;;;5084066;28;19932;-67
2021/11/05 15:20:04;;;;;;;;;;;;;;;;;;5084254;28;19963;-69
2021/11/05 15:22:31;;;;;;;;;;;;;;;;;;5087975;28;19954;-70
2021/11/05 15:24:58;;;;;;;;;;;;;;;;;;5090207;28;19924;-68
2021/11/05 15:27:26;;;;;;;;;;;;;;;;;;5084405;28;20525;-68
2021/11/05 15:29:53;;;;;;;;;;;;;;;;;;5084844;28;19924;-68
2021/11/05 15:32:19;;;;;;;;;;;;;;;;;;5085285;28;19925;-68
2021/11/05 15:34:46;;;;;;;;;;;;;;;;;;5085346;28;19935;-66
2021/11/05 15:37:13;;;;;;;;;;;;;;;;;;5083383;28;19930;-67
2021/11/05 15:39:40;;;;;;;;;;;;;;;;;;5082554;28;19928;-69
2021/11/05 15:42:07;;;;;;;;;;;;;;;;;;5085350;28;19928;-67
2021/11/05 15:44:34;;;;;;;;;;;;;;;;;;5088741;28;19924;-68
2021/11/05 15:47:01;;;;;;;;;;;;;;;;;;5088729;28;20372;-68
2021/11/05 15:49:28;;;;;;;;;;;;;;;;;;5087608;28;19935;-66
2021/11/05 15:51:55;;;;;;;;;;;;;;;;;;5095064;28;20019;-68
2021/11/05 15:54:22;;;;;;;;;;;;;;;;;;5090524;28;19928;-68
2021/11/05 15:56:49;;;;;;;;;;;;;;;;;;5096092;28;20375;-68
2021/11/05 15:59:16;;;;;;;;;;;;;;;;;;5090126;28;20447;-69
2021/11/05 16:01:43;;;;;;;;;;;;;;;;;;5090618;28;20006;-68
2021/11/05 16:04:13;;;;;;;;;;;;;;;;;;5097729;28;19946;-66
2021/11/05 16:06:40;;;;;;;;;;;;;;;;;;5091257;28;19924;-69
2021/11/05 16:09:07;;;;;;;;;;;;;;;;;;5091213;28;19983;-65
2021/11/05 16:11:34;;;;;;;;;;;;;;;;;;5088276;28;19931;-68
2021/11/05 16:14:01;;;;;;;;;;;;;;;;;;5091783;28;19924;-67
2021/11/05 16:16:28;;;;;;;;;;;;;;;;;;5092702;28;20010;-68
2021/11/05 16:18:55;;;;;;;;;;;;;;;;;;5094967;28;20399;-66
2021/11/05 16:21:22;;;;;;;;;;;;;;;;;;5091892;28;19934;-68
2021/11/05 16:23:49;;;;;;;;;;;;;;;;;;5092917;28;20299;-66
2021/11/05 16:26:16;;;;;;;;;;;;;;;;;;5093699;28;19986;-67
2021/11/05 16:28:43;;;;;;;;;;;;;;;;;;5094851;28;19989;-67
2021/11/05 16:31:09;;;;;;;;;;;;;;;;;;5087340;28;19931;-66
2021/11/05 16:33:36;;;;;;;;;;;;;;;;;;5090691;28;19963;-67
2021/11/05 16:36:03;;;;;;;;;;;;;;;;;;5090151;28;19932;-68
2021/11/05 16:38:30;;;;;;;;;;;;;;;;;;5089161;28;19924;-67
2021/11/05 16:40:57;;;;;;;;;;;;;;;;;;5094456;28;20002;-66
2021/11/05 16:43:27;;;;;;;;;;;;;;;;;;5089120;28;19931;-67
2021/11/05 16:45:54;;;;;;;;;;;;;;;;;;5089827;28;20379;-67